Saint-Armel Weather Station Historical Data
 
Daily Summary for October 25, 2020 Units:  Metric    English   Both
Daily Weekly Monthly Yearly Custom
  Current: High: Low: Average:
Temperature: 13 °C 13 °C 12 °C 12.5 °C
Dew Point: 12 °C 13 °C 12 °C 12.3 °C
Humidity: 98% 98% 98% 98%
Wind Speed: 7km/h 11km/h 1km/h 5.4km/h
Wind Gust: 14km/h 23km/h - -
WindSSW - - SSW
Pressure: 1002.1 hPa 1004.1 hPa 1001.1 hPa -
Precipitation: 3.3 mm      
Historical Graphs
 
 
Tabular Data for October 25, 2020
Time Temperature Dew Point Pressure Wind Wind Speed Wind Gust Humidity Rainfall Rate (Hourly)
00:00 13 °C 13 °C 1003.1 hPa SW 11 km/h 23 km/h 98% 5.1 mm
00:05 13 °C 13 °C 1003.1 hPa SW 11 km/h 20 km/h 98% 4.1 mm
00:10 13 °C 13 °C 1003.1 hPa SW 10 km/h 20 km/h 98% 4.1 mm
00:15 13 °C 13 °C 1003.1 hPa SW 8 km/h 17 km/h 98% 4.1 mm
00:20 13 °C 13 °C 1004.1 hPa WSW 7 km/h 14 km/h 98% 4.1 mm
00:25 13 °C 13 °C 1004.1 hPa SW 6 km/h 14 km/h 98% 4.1 mm
00:30 13 °C 13 °C 1004.1 hPa SW 6 km/h 17 km/h 98% 5.3 mm
00:35 13 °C 13 °C 1003.1 hPa SW 6 km/h 17 km/h 98% 4.3 mm
00:40 13 °C 13 °C 1003.1 hPa SW 5 km/h 15 km/h 98% 3.3 mm
00:45 13 °C 12 °C 1003.1 hPa SW 6 km/h 16 km/h 98% 2.3 mm
00:50 12 °C 12 °C 1003.1 hPa SW 8 km/h 16 km/h 98% 3.3 mm
00:55 12 °C 12 °C 1003.1 hPa SW 5 km/h 13 km/h 98% 3.3 mm
01:00 12 °C 12 °C 1003.1 hPa SSW 6 km/h 17 km/h 98% 2.3 mm
01:05 12 °C 12 °C 1003.1 hPa SSW 6 km/h 17 km/h 98% 2.3 mm
01:10 12 °C 12 °C 1003.1 hPa SW 5 km/h 13 km/h 98% 2.3 mm
01:15 12 °C 12 °C 1003.1 hPa SW 6 km/h 14 km/h 98% 3.3 mm
01:20 12 °C 12 °C 1003.1 hPa SW 7 km/h 14 km/h 98% 3.3 mm
01:25 12 °C 12 °C 1003.1 hPa SW 7 km/h 13 km/h 98% 3.3 mm
01:30 12 °C 12 °C 1003.1 hPa SW 7 km/h 17 km/h 98% 2.0 mm
01:35 12 °C 12 °C 1003.1 hPa SW 6 km/h 17 km/h 98% 2.0 mm
01:40 12 °C 12 °C 1003.1 hPa SSW 5 km/h 12 km/h 98% 2.0 mm
01:45 12 °C 12 °C 1003.1 hPa SW 5 km/h 11 km/h 98% 2.0 mm
01:50 12 °C 12 °C 1003.1 hPa SW 4 km/h 11 km/h 98% 1.0 mm
01:55 12 °C 12 °C 1003.1 hPa SSW 4 km/h 13 km/h 98% 1.0 mm
02:00 12 °C 12 °C 1003.1 hPa SSW 5 km/h 16 km/h 98% 1.0 mm
02:05 12 °C 12 °C 1002.1 hPa SSW 5 km/h 16 km/h 98% 1.0 mm
02:10 12 °C 12 °C 1002.1 hPa SSW 3 km/h 10 km/h 98% 1.0 mm
02:15 12 °C 12 °C 1002.1 hPa SSW 3 km/h 9 km/h 98% 0.0 mm
02:20 12 °C 12 °C 1003.1 hPa SSW 4 km/h 10 km/h 98% 0.0 mm
02:25 12 °C 12 °C 1003.1 hPa SSW 4 km/h 10 km/h 98% 0.0 mm
02:30 12 °C 12 °C 1003.1 hPa SSW 3 km/h 12 km/h 98% 0.0 mm
02:35 12 °C 12 °C 1003.1 hPa SSW 4 km/h 12 km/h 98% 0.0 mm
02:40 12 °C 12 °C 1003.1 hPa SSW 3 km/h 10 km/h 98% 0.0 mm
02:45 12 °C 12 °C 1003.1 hPa SSW 3 km/h 10 km/h 98% 0.0 mm
02:50 12 °C 12 °C 1002.1 hPa SSW 3 km/h 10 km/h 98% 0.0 mm
02:55 13 °C 12 °C 1002.1 hPa SSW 3 km/h 10 km/h 98% 0.0 mm
02:00 13 °C 12 °C 1002.1 hPa SSW 5 km/h 12 km/h 98% 0.0 mm
02:05 13 °C 12 °C 1003.1 hPa SSW 4 km/h 12 km/h 98% 0.0 mm
02:10 13 °C 12 °C 1003.1 hPa SSW 4 km/h 11 km/h 98% 0.0 mm
02:15 13 °C 12 °C 1003.1 hPa SSW 5 km/h 13 km/h 98% 0.0 mm
02:20 13 °C 12 °C 1002.1 hPa SSW 5 km/h 13 km/h 98% 0.0 mm
02:25 13 °C 12 °C 1002.1 hPa SSW 5 km/h 12 km/h 98% 0.0 mm
02:30 13 °C 12 °C 1002.1 hPa SSW 4 km/h 11 km/h 98% 0.0 mm
02:35 13 °C 12 °C 1003.1 hPa SSW 3 km/h 9 km/h 98% 0.0 mm
02:40 13 °C 12 °C 1003.1 hPa SSW 2 km/h 8 km/h 98% 0.0 mm
02:45 13 °C 12 °C 1003.1 hPa SSW 1 km/h 6 km/h 98% 0.0 mm
02:50 13 °C 12 °C 1003.1 hPa SSW 1 km/h 7 km/h 98% 0.0 mm
02:55 13 °C 12 °C 1003.1 hPa SSW 2 km/h 7 km/h 98% 0.0 mm
03:00 13 °C 12 °C 1003.1 hPa SSW 2 km/h 7 km/h 98% 0.0 mm
03:05 13 °C 12 °C 1003.1 hPa SSW 3 km/h 9 km/h 98% 0.0 mm
03:10 13 °C 13 °C 1003.1 hPa SSW 4 km/h 15 km/h 98% 0.0 mm
03:15 13 °C 13 °C 1003.1 hPa SSW 5 km/h 15 km/h 98% 0.0 mm
03:20 13 °C 13 °C 1003.1 hPa South 4 km/h 13 km/h 98% 0.0 mm
03:25 13 °C 13 °C 1003.1 hPa SSW 4 km/h 9 km/h 98% 0.0 mm
03:30 13 °C 13 °C 1003.1 hPa SSW 5 km/h 12 km/h 98% 0.0 mm
03:35 13 °C 13 °C 1003.1 hPa SSW 5 km/h 12 km/h 98% 0.0 mm
03:40 13 °C 13 °C 1003.1 hPa SSW 4 km/h 10 km/h 98% 0.0 mm
03:45 13 °C 13 °C 1003.1 hPa SSW 4 km/h 12 km/h 98% 0.0 mm
03:50 13 °C 13 °C 1003.1 hPa SSW 4 km/h 12 km/h 98% 0.0 mm
03:55 13 °C 13 °C 1003.1 hPa SSW 4 km/h 10 km/h 98% 0.0 mm
04:00 13 °C 13 °C 1003.1 hPa SSW 4 km/h 15 km/h 98% 0.0 mm
04:05 13 °C 13 °C 1002.1 hPa SSW 4 km/h 15 km/h 98% 0.0 mm
04:10 13 °C 13 °C 1002.1 hPa SSW 4 km/h 15 km/h 98% 0.0 mm
04:15 13 °C 13 °C 1002.1 hPa SSW 4 km/h 15 km/h 98% 0.0 mm
04:20 13 °C 13 °C 1001.1 hPa SSW 4 km/h 14 km/h 98% 0.0 mm
04:25 13 °C 13 °C 1001.1 hPa SSW 4 km/h 14 km/h 98% 0.0 mm
04:30 13 °C 13 °C 1001.1 hPa SSW 4 km/h 12 km/h 98% 0.0 mm
04:35 13 °C 13 °C 1001.1 hPa SSW 4 km/h 12 km/h 98% 0.0 mm
04:40 13 °C 13 °C 1001.1 hPa SSW 4 km/h 13 km/h 98% 0.0 mm
04:45 13 °C 13 °C 1001.1 hPa SSW 4 km/h 16 km/h 98% 0.0 mm
04:50 13 °C 13 °C 1002.1 hPa SSW 5 km/h 16 km/h 98% 0.0 mm
04:55 13 °C 13 °C 1002.1 hPa SW 7 km/h 23 km/h 98% 0.0 mm
05:00 13 °C 12 °C 1002.1 hPa SW 8 km/h 23 km/h 98% 0.0 mm
05:05 12 °C 12 °C 1002.1 hPa SW 8 km/h 18 km/h 98% 0.0 mm
05:10 12 °C 12 °C 1002.1 hPa SW 11 km/h 21 km/h 98% 0.0 mm
05:15 12 °C 12 °C 1002.1 hPa WSW 11 km/h 21 km/h 98% 0.0 mm
05:20 12 °C 12 °C 1002.1 hPa WSW 11 km/h 21 km/h 98% 0.0 mm
05:25 12 °C 12 °C 1002.1 hPa WSW 9 km/h 19 km/h 98% 0.0 mm
05:30 12 °C 12 °C 1002.1 hPa WSW 7 km/h 14 km/h 98% 0.0 mm
05:35 12 °C 12 °C 1002.1 hPa WSW 6 km/h 9 km/h 98% 0.0 mm
05:40 12 °C 12 °C 1002.1 hPa SW 5 km/h 12 km/h 98% 0.0 mm
05:45 12 °C 12 °C 1002.1 hPa SW 6 km/h 12 km/h 98% 0.0 mm
05:50 12 °C 12 °C 1002.1 hPa SW 5 km/h 10 km/h 98% 0.0 mm
05:55 12 °C 12 °C 1002.1 hPa SSW 3 km/h 7 km/h 98% 0.0 mm
06:00 12 °C 12 °C 1002.1 hPa South 4 km/h 14 km/h 98% 0.0 mm
06:05 12 °C 12 °C 1002.1 hPa SSW 5 km/h 14 km/h 98% 0.0 mm
06:10 13 °C 12 °C 1002.1 hPa SSW 6 km/h 14 km/h 98% 0.0 mm
06:15 13 °C 12 °C 1002.1 hPa South 6 km/h 14 km/h 98% 0.0 mm
06:20 13 °C 12 °C 1002.1 hPa South 6 km/h 17 km/h 98% 0.0 mm
06:25 13 °C 12 °C 1002.1 hPa SSW 6 km/h 18 km/h 98% 0.0 mm
06:30 13 °C 12 °C 1002.1 hPa SW 7 km/h 18 km/h 98% 0.0 mm
06:35 13 °C 12 °C 1002.1 hPa SSW 7 km/h 18 km/h 98% 0.0 mm
06:40 13 °C 12 °C 1002.1 hPa SSW 6 km/h 17 km/h 98% 0.0 mm
06:45 13 °C 12 °C 1002.1 hPa SSW 6 km/h 17 km/h 98% 0.0 mm
06:50 13 °C 12 °C 1002.1 hPa SSW 8 km/h 13 km/h 98% 0.0 mm
06:55 13 °C 12 °C 1002.1 hPa SSW 8 km/h 13 km/h 98% 0.0 mm
07:00 13 °C 12 °C 1002.1 hPa SSW 8 km/h 13 km/h 98% 0.0 mm
07:05 12 °C 12 °C 1002.1 hPa SSW 7 km/h 13 km/h 98% 0.0 mm
07:10 12 °C 12 °C 1002.1 hPa SW 7 km/h 14 km/h 98% 0.0 mm
07:15 12 °C 12 °C 1002.1 hPa SW 6 km/h 14 km/h 98% 0.0 mm
07:20 12 °C 12 °C 1002.1 hPa SSW 6 km/h 11 km/h 98% 0.0 mm
07:25 12 °C 12 °C 1002.1 hPa SSW 6 km/h 17 km/h 98% 0.0 mm
07:30 12 °C 12 °C 1002.1 hPa SSW 5 km/h 17 km/h 98% 0.0 mm
07:35 12 °C 12 °C 1002.1 hPa SSW 4 km/h 8 km/h 98% 0.0 mm
07:40 12 °C 12 °C 1002.1 hPa SSW 4 km/h 8 km/h 98% 0.0 mm
07:45 12 °C 12 °C 1002.1 hPa SSW 5 km/h 11 km/h 98% 0.0 mm
07:50 12 °C 12 °C 1002.1 hPa SSW 6 km/h 11 km/h 98% 0.0 mm
07:55 12 °C 12 °C 1002.1 hPa SSW 8 km/h 16 km/h 98% 0.0 mm
08:00 12 °C 12 °C 1002.1 hPa SSW 7 km/h 16 km/h 98% 0.0 mm
08:05 12 °C 12 °C 1002.1 hPa SSW 6 km/h 12 km/h 98% 0.0 mm
08:10 12 °C 12 °C 1002.1 hPa SSW 5 km/h 10 km/h 98% 0.0 mm
08:15 12 °C 12 °C 1002.1 hPa SSW 5 km/h 13 km/h 98% 0.0 mm
08:20 12 °C 12 °C 1002.1 hPa SSW 6 km/h 13 km/h 98% 0.0 mm
08:25 12 °C 12 °C 1002.1 hPa SSW 5 km/h 12 km/h 98% 0.0 mm
08:30 13 °C 12 °C 1002.1 hPa SSW 6 km/h 12 km/h 98% 0.0 mm
08:35 13 °C 12 °C 1002.1 hPa SSW 7 km/h 14 km/h 98% 0.0 mm
Juneau County Weather
Compliments of Weather Underground - 4 mb